sensor_id;sensor_type;location;lat;lon;timestamp;P1;durP1;ratioP1;P2;durP2;ratioP2
11127;SDS011;5618;51.028;5.234;2022-08-19T00:00:25;9.35;;;7.25;;
11127;SDS011;5618;51.028;5.234;2022-08-19T00:02:52;7.35;;;6.65;;
11127;SDS011;5618;51.028;5.234;2022-08-19T00:05:18;8.02;;;7.22;;
11127;SDS011;5618;51.028;5.234;2022-08-19T00:07:45;8.95;;;7.50;;
11127;SDS011;5618;51.028;5.234;2022-08-19T00:10:12;7.93;;;7.13;;
11127;SDS011;5618;51.028;5.234;2022-08-19T00:12:39;8.65;;;7.38;;
11127;SDS011;5618;51.028;5.234;2022-08-19T00:15:05;7.85;;;7.07;;
11127;SDS011;5618;51.028;5.234;2022-08-19T00:17:37;8.75;;;7.63;;
11127;SDS011;5618;51.028;5.234;2022-08-19T00:20:10;9.05;;;8.13;;
11127;SDS011;5618;51.028;5.234;2022-08-19T00:22:37;9.68;;;8.57;;
11127;SDS011;5618;51.028;5.234;2022-08-19T00:25:04;9.90;;;8.13;;
11127;SDS011;5618;51.028;5.234;2022-08-19T00:27:30;10.45;;;9.38;;
11127;SDS011;5618;51.028;5.234;2022-08-19T00:29:56;12.70;;;10.15;;
11127;SDS011;5618;51.028;5.234;2022-08-19T00:32:23;10.90;;;9.05;;
11127;SDS011;5618;51.028;5.234;2022-08-19T00:34:50;8.30;;;7.47;;
11127;SDS011;5618;51.028;5.234;2022-08-19T00:37:17;10.30;;;8.35;;
11127;SDS011;5618;51.028;5.234;2022-08-19T00:39:44;10.25;;;9.18;;
11127;SDS011;5618;51.028;5.234;2022-08-19T00:42:10;10.68;;;8.75;;
11127;SDS011;5618;51.028;5.234;2022-08-19T00:44:36;9.23;;;8.32;;
11127;SDS011;5618;51.028;5.234;2022-08-19T00:47:02;10.80;;;9.73;;
11127;SDS011;5618;51.028;5.234;2022-08-19T00:49:33;12.63;;;8.95;;
11127;SDS011;5618;51.028;5.234;2022-08-19T00:52:09;13.73;;;8.85;;
11127;SDS011;5618;51.028;5.234;2022-08-19T00:54:40;11.60;;;9.15;;
11127;SDS011;5618;51.028;5.234;2022-08-19T00:57:07;10.07;;;8.15;;
11127;SDS011;5618;51.028;5.234;2022-08-19T00:59:39;10.52;;;9.45;;
11127;SDS011;5618;51.028;5.234;2022-08-19T01:02:08;11.93;;;9.45;;
11127;SDS011;5618;51.028;5.234;2022-08-19T01:04:33;12.15;;;9.15;;
11127;SDS011;5618;51.028;5.234;2022-08-19T01:06:59;9.13;;;8.20;;
11127;SDS011;5618;51.028;5.234;2022-08-19T01:09:26;11.77;;;8.93;;
11127;SDS011;5618;51.028;5.234;2022-08-19T01:11:52;11.32;;;9.20;;
11127;SDS011;5618;51.028;5.234;2022-08-19T01:14:17;9.63;;;8.65;;
11127;SDS011;5618;51.028;5.234;2022-08-19T01:16:44;11.57;;;9.07;;
11127;SDS011;5618;51.028;5.234;2022-08-19T01:19:18;12.88;;;9.65;;
11127;SDS011;5618;51.028;5.234;2022-08-19T01:21:58;13.25;;;9.23;;
11127;SDS011;5618;51.028;5.234;2022-08-19T01:24:28;12.98;;;10.45;;
11127;SDS011;5618;51.028;5.234;2022-08-19T01:26:55;13.90;;;10.02;;
11127;SDS011;5618;51.028;5.234;2022-08-19T01:29:21;15.40;;;10.32;;
11127;SDS011;5618;51.028;5.234;2022-08-19T01:31:47;13.55;;;9.60;;
11127;SDS011;5618;51.028;5.234;2022-08-19T01:34:14;12.43;;;9.85;;
11127;SDS011;5618;51.028;5.234;2022-08-19T01:36:43;14.48;;;10.02;;
11127;SDS011;5618;51.028;5.234;2022-08-19T01:39:20;12.80;;;10.38;;
11127;SDS011;5618;51.028;5.234;2022-08-19T01:41:49;13.90;;;10.55;;
11127;SDS011;5618;51.028;5.234;2022-08-19T01:44:20;15.55;;;11.35;;
11127;SDS011;5618;51.028;5.234;2022-08-19T01:46:48;15.55;;;12.27;;
11127;SDS011;5618;51.028;5.234;2022-08-19T01:49:16;16.52;;;11.20;;
11127;SDS011;5618;51.028;5.234;2022-08-19T01:51:43;18.58;;;12.13;;
11127;SDS011;5618;51.028;5.234;2022-08-19T01:54:09;17.58;;;12.95;;
11127;SDS011;5618;51.028;5.234;2022-08-19T01:56:36;15.40;;;10.77;;
11127;SDS011;5618;51.028;5.234;2022-08-19T01:59:04;19.58;;;13.07;;
11127;SDS011;5618;51.028;5.234;2022-08-19T02:01:35;17.05;;;12.57;;
11127;SDS011;5618;51.028;5.234;2022-08-19T02:04:00;17.98;;;12.93;;
11127;SDS011;5618;51.028;5.234;2022-08-19T02:06:27;21.48;;;12.95;;
11127;SDS011;5618;51.028;5.234;2022-08-19T02:08:53;22.60;;;13.85;;
11127;SDS011;5618;51.028;5.234;2022-08-19T02:11:20;20.08;;;13.82;;
11127;SDS011;5618;51.028;5.234;2022-08-19T02:13:50;19.27;;;13.88;;
11127;SDS011;5618;51.028;5.234;2022-08-19T02:16:18;18.55;;;13.18;;
11127;SDS011;5618;51.028;5.234;2022-08-19T02:18:45;19.55;;;14.15;;
11127;SDS011;5618;51.028;5.234;2022-08-19T02:21:11;22.52;;;14.23;;
11127;SDS011;5618;51.028;5.234;2022-08-19T02:23:38;27.33;;;15.60;;
11127;SDS011;5618;51.028;5.234;2022-08-19T02:26:03;24.77;;;15.88;;
11127;SDS011;5618;51.028;5.234;2022-08-19T02:28:29;22.42;;;14.77;;
11127;SDS011;5618;51.028;5.234;2022-08-19T02:30:55;22.23;;;15.07;;
11127;SDS011;5618;51.028;5.234;2022-08-19T02:33:20;21.23;;;15.27;;
11127;SDS011;5618;51.028;5.234;2022-08-19T02:35:46;23.27;;;15.20;;
11127;SDS011;5618;51.028;5.234;2022-08-19T02:38:12;25.23;;;15.95;;
11127;SDS011;5618;51.028;5.234;2022-08-19T02:40:55;23.63;;;15.43;;
11127;SDS011;5618;51.028;5.234;2022-08-19T02:43:25;25.20;;;15.40;;
11127;SDS011;5618;51.028;5.234;2022-08-19T02:45:52;21.80;;;14.55;;
11127;SDS011;5618;51.028;5.234;2022-08-19T02:48:18;21.73;;;14.85;;
11127;SDS011;5618;51.028;5.234;2022-08-19T02:50:45;22.90;;;15.63;;
11127;SDS011;5618;51.028;5.234;2022-08-19T02:53:12;27.65;;;16.60;;
11127;SDS011;5618;51.028;5.234;2022-08-19T02:55:46;24.67;;;15.77;;
11127;SDS011;5618;51.028;5.234;2022-08-19T02:58:13;24.27;;;14.98;;
11127;SDS011;5618;51.028;5.234;2022-08-19T03:00:51;25.15;;;15.93;;
11127;SDS011;5618;51.028;5.234;2022-08-19T03:03:20;26.05;;;15.50;;
11127;SDS011;5618;51.028;5.234;2022-08-19T03:05:46;22.23;;;14.20;;
11127;SDS011;5618;51.028;5.234;2022-08-19T03:08:12;23.40;;;15.45;;
11127;SDS011;5618;51.028;5.234;2022-08-19T03:10:42;22.88;;;14.95;;
11127;SDS011;5618;51.028;5.234;2022-08-19T03:13:13;23.92;;;15.50;;
11127;SDS011;5618;51.028;5.234;2022-08-19T03:15:41;22.08;;;14.40;;
11127;SDS011;5618;51.028;5.234;2022-08-19T03:18:09;23.33;;;14.77;;
11127;SDS011;5618;51.028;5.234;2022-08-19T03:20:39;23.10;;;14.02;;
11127;SDS011;5618;51.028;5.234;2022-08-19T03:23:10;24.45;;;14.88;;
11127;SDS011;5618;51.028;5.234;2022-08-19T03:25:41;21.92;;;14.77;;
11127;SDS011;5618;51.028;5.234;2022-08-19T03:28:09;22.00;;;14.25;;
11127;SDS011;5618;51.028;5.234;2022-08-19T03:30:37;20.40;;;13.40;;
11127;SDS011;5618;51.028;5.234;2022-08-19T03:33:05;22.27;;;14.82;;
11127;SDS011;5618;51.028;5.234;2022-08-19T03:35:32;20.08;;;13.68;;
11127;SDS011;5618;51.028;5.234;2022-08-19T03:37:58;22.77;;;14.27;;
11127;SDS011;5618;51.028;5.234;2022-08-19T03:40:24;20.77;;;14.20;;
11127;SDS011;5618;51.028;5.234;2022-08-19T03:42:51;22.10;;;13.63;;
11127;SDS011;5618;51.028;5.234;2022-08-19T03:45:16;21.88;;;13.25;;
11127;SDS011;5618;51.028;5.234;2022-08-19T03:47:42;19.90;;;13.23;;
11127;SDS011;5618;51.028;5.234;2022-08-19T03:50:08;20.10;;;13.45;;
11127;SDS011;5618;51.028;5.234;2022-08-19T03:52:34;20.15;;;12.90;;
11127;SDS011;5618;51.028;5.234;2022-08-19T03:55:01;19.02;;;13.25;;
11127;SDS011;5618;51.028;5.234;2022-08-19T03:57:27;21.10;;;13.13;;
11127;SDS011;5618;51.028;5.234;2022-08-19T03:59:52;17.98;;;11.30;;
11127;SDS011;5618;51.028;5.234;2022-08-19T04:02:18;18.38;;;12.07;;
11127;SDS011;5618;51.028;5.234;2022-08-19T04:04:43;22.02;;;13.88;;
11127;SDS011;5618;51.028;5.234;2022-08-19T04:07:10;17.15;;;11.65;;
11127;SDS011;5618;51.028;5.234;2022-08-19T04:09:40;18.42;;;12.55;;
11127;SDS011;5618;51.028;5.234;2022-08-19T04:12:06;17.88;;;12.13;;
11127;SDS011;5618;51.028;5.234;2022-08-19T04:14:32;18.52;;;13.38;;
11127;SDS011;5618;51.028;5.234;2022-08-19T04:16:59;18.23;;;12.40;;
11127;SDS011;5618;51.028;5.234;2022-08-19T04:19:30;17.38;;;12.55;;
11127;SDS011;5618;51.028;5.234;2022-08-19T04:21:56;17.42;;;12.00;;
11127;SDS011;5618;51.028;5.234;2022-08-19T04:24:22;20.27;;;14.38;;
11127;SDS011;5618;51.028;5.234;2022-08-19T04:26:48;22.42;;;12.88;;
11127;SDS011;5618;51.028;5.234;2022-08-19T04:29:15;19.17;;;13.20;;
11127;SDS011;5618;51.028;5.234;2022-08-19T04:31:44;19.58;;;12.00;;
11127;SDS011;5618;51.028;5.234;2022-08-19T04:34:11;20.02;;;13.43;;
11127;SDS011;5618;51.028;5.234;2022-08-19T04:36:39;20.20;;;13.27;;
11127;SDS011;5618;51.028;5.234;2022-08-19T04:39:08;21.85;;;13.95;;
11127;SDS011;5618;51.028;5.234;2022-08-19T04:41:40;21.30;;;14.00;;
11127;SDS011;5618;51.028;5.234;2022-08-19T04:44:24;22.40;;;14.85;;
11127;SDS011;5618;51.028;5.234;2022-08-19T04:46:50;25.40;;;16.35;;
11127;SDS011;5618;51.028;5.234;2022-08-19T04:49:17;24.85;;;15.35;;
11127;SDS011;5618;51.028;5.234;2022-08-19T04:51:45;25.85;;;15.73;;
11127;SDS011;5618;51.028;5.234;2022-08-19T04:54:12;24.27;;;16.35;;
11127;SDS011;5618;51.028;5.234;2022-08-19T04:56:39;26.00;;;15.85;;
11127;SDS011;5618;51.028;5.234;2022-08-19T04:59:05;28.25;;;16.42;;
11127;SDS011;5618;51.028;5.234;2022-08-19T05:01:32;30.80;;;16.38;;
11127;SDS011;5618;51.028;5.234;2022-08-19T05:04:02;24.63;;;17.00;;
11127;SDS011;5618;51.028;5.234;2022-08-19T05:06:29;29.67;;;16.48;;
11127;SDS011;5618;51.028;5.234;2022-08-19T05:08:57;26.63;;;16.88;;
11127;SDS011;5618;51.028;5.234;2022-08-19T05:11:25;27.95;;;16.58;;
11127;SDS011;5618;51.028;5.234;2022-08-19T05:13:53;29.92;;;16.73;;
11127;SDS011;5618;51.028;5.234;2022-08-19T05:16:20;25.60;;;16.35;;
11127;SDS011;5618;51.028;5.234;2022-08-19T05:18:47;26.77;;;16.38;;
11127;SDS011;5618;51.028;5.234;2022-08-19T05:21:33;29.15;;;15.57;;
11127;SDS011;5618;51.028;5.234;2022-08-19T05:24:18;25.15;;;15.38;;
11127;SDS011;5618;51.028;5.234;2022-08-19T05:26:48;32.22;;;16.42;;
11127;SDS011;5618;51.028;5.234;2022-08-19T05:29:16;25.15;;;15.30;;
11127;SDS011;5618;51.028;5.234;2022-08-19T05:31:43;26.73;;;15.00;;
11127;SDS011;5618;51.028;5.234;2022-08-19T05:34:09;26.52;;;15.65;;
11127;SDS011;5618;51.028;5.234;2022-08-19T05:36:36;24.45;;;14.57;;
11127;SDS011;5618;51.028;5.234;2022-08-19T05:39:11;27.30;;;15.13;;
11127;SDS011;5618;51.028;5.234;2022-08-19T05:41:44;20.42;;;13.70;;
11127;SDS011;5618;51.028;5.234;2022-08-19T05:44:12;24.58;;;14.90;;
11127;SDS011;5618;51.028;5.234;2022-08-19T05:46:39;25.48;;;15.10;;
11127;SDS011;5618;51.028;5.234;2022-08-19T05:49:07;20.05;;;14.05;;
11127;SDS011;5618;51.028;5.234;2022-08-19T05:51:34;21.00;;;13.82;;
11127;SDS011;5618;51.028;5.234;2022-08-19T05:54:02;18.67;;;12.25;;
11127;SDS011;5618;51.028;5.234;2022-08-19T05:56:30;23.98;;;12.88;;
11127;SDS011;5618;51.028;5.234;2022-08-19T05:58:57;21.02;;;11.52;;
11127;SDS011;5618;51.028;5.234;2022-08-19T06:01:24;19.95;;;11.98;;
11127;SDS011;5618;51.028;5.234;2022-08-19T06:03:50;20.55;;;11.85;;
11127;SDS011;5618;51.028;5.234;2022-08-19T06:06:17;15.75;;;10.98;;
11127;SDS011;5618;51.028;5.234;2022-08-19T06:08:43;19.33;;;11.45;;
11127;SDS011;5618;51.028;5.234;2022-08-19T06:11:20;20.27;;;11.63;;
11127;SDS011;5618;51.028;5.234;2022-08-19T06:14:02;19.45;;;11.52;;
11127;SDS011;5618;51.028;5.234;2022-08-19T06:16:32;16.85;;;11.75;;
11127;SDS011;5618;51.028;5.234;2022-08-19T06:19:00;20.40;;;11.75;;
11127;SDS011;5618;51.028;5.234;2022-08-19T06:21:28;18.55;;;10.98;;
11127;SDS011;5618;51.028;5.234;2022-08-19T06:23:55;17.00;;;11.18;;
11127;SDS011;5618;51.028;5.234;2022-08-19T06:26:22;18.27;;;11.45;;
11127;SDS011;5618;51.028;5.234;2022-08-19T06:28:49;19.23;;;13.02;;
11127;SDS011;5618;51.028;5.234;2022-08-19T06:31:16;18.98;;;11.40;;
11127;SDS011;5618;51.028;5.234;2022-08-19T06:33:45;20.02;;;12.30;;
11127;SDS011;5618;51.028;5.234;2022-08-19T06:36:18;21.52;;;12.38;;
11127;SDS011;5618;51.028;5.234;2022-08-19T06:39:04;21.13;;;12.90;;
11127;SDS011;5618;51.028;5.234;2022-08-19T06:41:31;17.98;;;11.85;;
11127;SDS011;5618;51.028;5.234;2022-08-19T06:43:59;20.33;;;12.13;;
11127;SDS011;5618;51.028;5.234;2022-08-19T06:46:25;17.75;;;11.32;;
11127;SDS011;5618;51.028;5.234;2022-08-19T06:48:51;19.08;;;11.90;;
11127;SDS011;5618;51.028;5.234;2022-08-19T06:51:18;19.45;;;11.45;;
11127;SDS011;5618;51.028;5.234;2022-08-19T06:53:48;17.38;;;10.95;;
11127;SDS011;5618;51.028;5.234;2022-08-19T06:56:15;15.73;;;10.65;;
11127;SDS011;5618;51.028;5.234;2022-08-19T06:58:43;15.18;;;9.85;;
11127;SDS011;5618;51.028;5.234;2022-08-19T07:01:09;18.40;;;11.07;;
11127;SDS011;5618;51.028;5.234;2022-08-19T07:03:36;16.88;;;9.52;;
11127;SDS011;5618;51.028;5.234;2022-08-19T07:06:07;16.27;;;10.25;;
11127;SDS011;5618;51.028;5.234;2022-08-19T07:08:35;14.82;;;9.57;;
11127;SDS011;5618;51.028;5.234;2022-08-19T07:11:05;12.63;;;8.73;;
11127;SDS011;5618;51.028;5.234;2022-08-19T07:13:35;16.73;;;9.35;;
11127;SDS011;5618;51.028;5.234;2022-08-19T07:16:08;15.05;;;9.35;;
11127;SDS011;5618;51.028;5.234;2022-08-19T07:18:36;14.10;;;8.65;;
11127;SDS011;5618;51.028;5.234;2022-08-19T07:21:06;18.15;;;9.77;;
11127;SDS011;5618;51.028;5.234;2022-08-19T07:23:37;15.23;;;10.95;;
11127;SDS011;5618;51.028;5.234;2022-08-19T07:26:10;18.23;;;12.50;;
11127;SDS011;5618;51.028;5.234;2022-08-19T07:28:36;16.67;;;11.55;;
11127;SDS011;5618;51.028;5.234;2022-08-19T07:31:06;17.75;;;11.07;;
11127;SDS011;5618;51.028;5.234;2022-08-19T07:33:32;17.55;;;11.10;;
11127;SDS011;5618;51.028;5.234;2022-08-19T07:36:00;15.50;;;10.20;;
11127;SDS011;5618;51.028;5.234;2022-08-19T07:38:26;14.90;;;10.70;;
11127;SDS011;5618;51.028;5.234;2022-08-19T07:40:52;17.85;;;9.68;;
11127;SDS011;5618;51.028;5.234;2022-08-19T07:43:18;13.45;;;8.32;;
11127;SDS011;5618;51.028;5.234;2022-08-19T07:45:50;15.55;;;9.20;;
11127;SDS011;5618;51.028;5.234;2022-08-19T07:48:18;14.88;;;9.52;;
11127;SDS011;5618;51.028;5.234;2022-08-19T07:50:43;15.07;;;10.02;;
11127;SDS011;5618;51.028;5.234;2022-08-19T07:53:09;13.77;;;8.38;;
11127;SDS011;5618;51.028;5.234;2022-08-19T07:55:36;13.60;;;8.15;;
11127;SDS011;5618;51.028;5.234;2022-08-19T07:58:02;12.20;;;8.18;;
11127;SDS011;5618;51.028;5.234;2022-08-19T08:00:29;12.90;;;8.60;;
11127;SDS011;5618;51.028;5.234;2022-08-19T08:02:55;12.57;;;7.90;;
11127;SDS011;5618;51.028;5.234;2022-08-19T08:05:21;13.55;;;7.20;;
11127;SDS011;5618;51.028;5.234;2022-08-19T08:08:06;13.05;;;7.63;;
11127;SDS011;5618;51.028;5.234;2022-08-19T08:10:50;12.05;;;7.88;;
11127;SDS011;5618;51.028;5.234;2022-08-19T08:13:15;12.48;;;8.05;;
11127;SDS011;5618;51.028;5.234;2022-08-19T08:15:41;9.57;;;7.28;;
11127;SDS011;5618;51.028;5.234;2022-08-19T08:18:09;11.20;;;7.13;;
11127;SDS011;5618;51.028;5.234;2022-08-19T08:20:36;10.32;;;7.40;;
11127;SDS011;5618;51.028;5.234;2022-08-19T08:23:02;12.23;;;7.22;;
11127;SDS011;5618;51.028;5.234;2022-08-19T08:25:46;14.50;;;8.30;;
11127;SDS011;5618;51.028;5.234;2022-08-19T08:28:13;12.20;;;7.50;;
11127;SDS011;5618;51.028;5.234;2022-08-19T08:30:39;13.93;;;7.40;;
11127;SDS011;5618;51.028;5.234;2022-08-19T08:33:07;13.32;;;6.53;;
11127;SDS011;5618;51.028;5.234;2022-08-19T08:35:32;8.95;;;6.45;;
11127;SDS011;5618;51.028;5.234;2022-08-19T08:37:59;9.25;;;6.38;;
11127;SDS011;5618;51.028;5.234;2022-08-19T08:40:34;8.93;;;6.30;;
11127;SDS011;5618;51.028;5.234;2022-08-19T08:43:18;11.52;;;6.50;;
11127;SDS011;5618;51.028;5.234;2022-08-19T08:51:07;8.07;;;5.63;;
11127;SDS011;5618;51.028;5.234;2022-08-19T08:53:37;7.22;;;5.47;;
11127;SDS011;5618;51.028;5.234;2022-08-19T08:56:06;7.78;;;4.97;;
11127;SDS011;5618;51.028;5.234;2022-08-19T08:58:50;5.60;;;4.80;;
11127;SDS011;5618;51.028;5.234;2022-08-19T09:01:17;6.53;;;4.53;;
11127;SDS011;5618;51.028;5.234;2022-08-19T09:03:43;9.13;;;5.82;;
11127;SDS011;5618;51.028;5.234;2022-08-19T09:06:25;6.68;;;5.05;;
11127;SDS011;5618;51.028;5.234;2022-08-19T09:09:06;7.32;;;5.05;;
11127;SDS011;5618;51.028;5.234;2022-08-19T09:16:59;9.57;;;5.57;;
11127;SDS011;5618;51.028;5.234;2022-08-19T09:19:28;6.55;;;5.40;;
11127;SDS011;5618;51.028;5.234;2022-08-19T09:21:55;7.28;;;4.82;;
11127;SDS011;5618;51.028;5.234;2022-08-19T09:24:20;7.13;;;5.10;;
11127;SDS011;5618;51.028;5.234;2022-08-19T09:26:46;7.70;;;5.40;;
11127;SDS011;5618;51.028;5.234;2022-08-19T09:29:12;8.40;;;4.82;;
11127;SDS011;5618;51.028;5.234;2022-08-19T09:31:37;9.15;;;4.43;;
11127;SDS011;5618;51.028;5.234;2022-08-19T09:34:03;8.95;;;5.25;;
11127;SDS011;5618;51.028;5.234;2022-08-19T09:36:33;8.02;;;4.82;;
11127;SDS011;5618;51.028;5.234;2022-08-19T09:39:02;6.13;;;5.03;;
11127;SDS011;5618;51.028;5.234;2022-08-19T09:41:29;8.07;;;4.85;;
11127;SDS011;5618;51.028;5.234;2022-08-19T09:43:55;6.82;;;4.60;;
11127;SDS011;5618;51.028;5.234;2022-08-19T09:46:23;5.18;;;4.18;;
11127;SDS011;5618;51.028;5.234;2022-08-19T09:48:50;6.07;;;4.32;;
11127;SDS011;5618;51.028;5.234;2022-08-19T09:51:18;4.38;;;3.97;;
11127;SDS011;5618;51.028;5.234;2022-08-19T09:53:47;6.45;;;4.30;;
11127;SDS011;5618;51.028;5.234;2022-08-19T09:56:17;5.47;;;3.83;;
11127;SDS011;5618;51.028;5.234;2022-08-19T09:58:43;7.70;;;3.92;;
11127;SDS011;5618;51.028;5.234;2022-08-19T10:01:14;6.38;;;4.47;;
11127;SDS011;5618;51.028;5.234;2022-08-19T10:03:42;8.95;;;4.50;;
11127;SDS011;5618;51.028;5.234;2022-08-19T10:06:08;6.72;;;3.83;;
11127;SDS011;5618;51.028;5.234;2022-08-19T10:08:35;6.97;;;3.45;;
11127;SDS011;5618;51.028;5.234;2022-08-19T10:11:02;5.32;;;3.92;;
11127;SDS011;5618;51.028;5.234;2022-08-19T10:13:29;3.30;;;2.85;;
11127;SDS011;5618;51.028;5.234;2022-08-19T10:16:01;4.57;;;3.10;;
11127;SDS011;5618;51.028;5.234;2022-08-19T10:18:30;8.82;;;3.60;;
11127;SDS011;5618;51.028;5.234;2022-08-19T10:21:03;4.88;;;2.75;;
11127;SDS011;5618;51.028;5.234;2022-08-19T10:23:33;3.00;;;2.80;;
11127;SDS011;5618;51.028;5.234;2022-08-19T10:25:59;5.28;;;3.28;;
11127;SDS011;5618;51.028;5.234;2022-08-19T10:28:26;6.60;;;2.88;;
11127;SDS011;5618;51.028;5.234;2022-08-19T10:30:51;4.10;;;2.50;;
11127;SDS011;5618;51.028;5.234;2022-08-19T10:33:18;5.78;;;2.90;;
11127;SDS011;5618;51.028;5.234;2022-08-19T10:35:43;2.65;;;2.20;;
11127;SDS011;5618;51.028;5.234;2022-08-19T10:38:11;2.75;;;2.50;;
11127;SDS011;5618;51.028;5.234;2022-08-19T10:40:37;2.90;;;2.60;;
11127;SDS011;5618;51.028;5.234;2022-08-19T10:43:03;2.90;;;2.53;;
11127;SDS011;5618;51.028;5.234;2022-08-19T10:45:28;3.75;;;2.58;;
11127;SDS011;5618;51.028;5.234;2022-08-19T10:47:54;3.85;;;2.40;;
11127;SDS011;5618;51.028;5.234;2022-08-19T10:50:20;5.10;;;2.60;;
11127;SDS011;5618;51.028;5.234;2022-08-19T10:53:05;8.93;;;2.83;;
11127;SDS011;5618;51.028;5.234;2022-08-19T10:55:33;3.90;;;2.53;;
11127;SDS011;5618;51.028;5.234;2022-08-19T10:58:18;2.53;;;2.30;;
11127;SDS011;5618;51.028;5.234;2022-08-19T11:00:57;2.72;;;2.47;;
11127;SDS011;5618;51.028;5.234;2022-08-19T11:03:23;2.78;;;2.45;;
11127;SDS011;5618;51.028;5.234;2022-08-19T11:05:57;2.65;;;2.30;;
11127;SDS011;5618;51.028;5.234;2022-08-19T11:08:23;2.88;;;2.35;;
11127;SDS011;5618;51.028;5.234;2022-08-19T11:10:52;2.97;;;2.70;;
11127;SDS011;5618;51.028;5.234;2022-08-19T11:13:26;4.68;;;2.63;;
11127;SDS011;5618;51.028;5.234;2022-08-19T11:16:00;3.08;;;2.55;;
11127;SDS011;5618;51.028;5.234;2022-08-19T11:18:28;4.15;;;2.80;;
11127;SDS011;5618;51.028;5.234;2022-08-19T11:20:54;2.97;;;2.45;;
11127;SDS011;5618;51.028;5.234;2022-08-19T11:23:20;2.38;;;2.17;;
11127;SDS011;5618;51.028;5.234;2022-08-19T11:25:45;4.95;;;2.88;;
11127;SDS011;5618;51.028;5.234;2022-08-19T11:28:11;3.03;;;2.60;;
11127;SDS011;5618;51.028;5.234;2022-08-19T11:30:38;4.95;;;2.53;;
11127;SDS011;5618;51.028;5.234;2022-08-19T11:33:04;4.20;;;2.50;;
11127;SDS011;5618;51.028;5.234;2022-08-19T11:35:29;3.03;;;2.60;;
11127;SDS011;5618;51.028;5.234;2022-08-19T11:37:55;3.70;;;2.42;;
11127;SDS011;5618;51.028;5.234;2022-08-19T11:40:26;4.45;;;2.97;;
11127;SDS011;5618;51.028;5.234;2022-08-19T11:42:51;2.97;;;2.47;;
11127;SDS011;5618;51.028;5.234;2022-08-19T11:45:20;4.45;;;2.80;;
11127;SDS011;5618;51.028;5.234;2022-08-19T11:47:46;2.95;;;2.35;;
11127;SDS011;5618;51.028;5.234;2022-08-19T11:50:12;3.83;;;2.60;;
11127;SDS011;5618;51.028;5.234;2022-08-19T11:52:39;3.97;;;2.53;;
11127;SDS011;5618;51.028;5.234;2022-08-19T11:55:05;3.28;;;2.33;;
11127;SDS011;5618;51.028;5.234;2022-08-19T11:57:31;2.60;;;2.40;;
11127;SDS011;5618;51.028;5.234;2022-08-19T11:59:57;3.60;;;2.30;;
11127;SDS011;5618;51.028;5.234;2022-08-19T12:02:22;5.22;;;2.58;;
11127;SDS011;5618;51.028;5.234;2022-08-19T12:04:48;3.33;;;2.78;;
11127;SDS011;5618;51.028;5.234;2022-08-19T12:07:14;3.38;;;2.35;;
11127;SDS011;5618;51.028;5.234;2022-08-19T12:09:40;4.55;;;2.55;;
11127;SDS011;5618;51.028;5.234;2022-08-19T12:12:06;2.90;;;2.03;;
11127;SDS011;5618;51.028;5.234;2022-08-19T12:14:32;2.88;;;2.65;;
11127;SDS011;5618;51.028;5.234;2022-08-19T12:16:57;2.45;;;2.25;;
11127;SDS011;5618;51.028;5.234;2022-08-19T12:19:23;3.97;;;2.58;;
11127;SDS011;5618;51.028;5.234;2022-08-19T12:21:49;2.50;;;2.30;;
11127;SDS011;5618;51.028;5.234;2022-08-19T12:24:18;2.80;;;2.42;;
11127;SDS011;5618;51.028;5.234;2022-08-19T12:26:48;2.92;;;2.55;;
11127;SDS011;5618;51.028;5.234;2022-08-19T12:29:14;3.78;;;2.75;;
11127;SDS011;5618;51.028;5.234;2022-08-19T12:31:40;2.40;;;2.20;;
11127;SDS011;5618;51.028;5.234;2022-08-19T12:34:06;2.80;;;2.10;;
11127;SDS011;5618;51.028;5.234;2022-08-19T12:36:32;4.95;;;2.63;;
11127;SDS011;5618;51.028;5.234;2022-08-19T12:38:58;4.07;;;2.70;;
11127;SDS011;5618;51.028;5.234;2022-08-19T12:41:24;2.97;;;2.72;;
11127;SDS011;5618;51.028;5.234;2022-08-19T12:43:50;2.90;;;2.60;;
11127;SDS011;5618;51.028;5.234;2022-08-19T12:46:16;3.28;;;2.40;;
11127;SDS011;5618;51.028;5.234;2022-08-19T12:48:43;5.65;;;2.58;;
11127;SDS011;5618;51.028;5.234;2022-08-19T12:51:12;2.83;;;2.58;;
11127;SDS011;5618;51.028;5.234;2022-08-19T12:53:39;3.28;;;2.58;;
11127;SDS011;5618;51.028;5.234;2022-08-19T12:56:06;2.55;;;2.35;;
11127;SDS011;5618;51.028;5.234;2022-08-19T12:58:33;2.92;;;2.55;;
11127;SDS011;5618;51.028;5.234;2022-08-19T13:00:59;4.80;;;1.90;;
11127;SDS011;5618;51.028;5.234;2022-08-19T13:03:31;5.90;;;3.03;;
11127;SDS011;5618;51.028;5.234;2022-08-19T13:05:56;4.75;;;2.70;;
11127;SDS011;5618;51.028;5.234;2022-08-19T13:08:22;2.25;;;2.05;;
11127;SDS011;5618;51.028;5.234;2022-08-19T13:10:48;2.28;;;1.88;;
11127;SDS011;5618;51.028;5.234;2022-08-19T13:13:13;3.70;;;2.15;;
11127;SDS011;5618;51.028;5.234;2022-08-19T13:15:40;4.05;;;2.10;;
11127;SDS011;5618;51.028;5.234;2022-08-19T13:18:08;4.07;;;2.67;;
11127;SDS011;5618;51.028;5.234;2022-08-19T13:20:35;2.85;;;2.25;;
11127;SDS011;5618;51.028;5.234;2022-08-19T13:23:02;3.28;;;2.42;;
11127;SDS011;5618;51.028;5.234;2022-08-19T13:25:29;3.78;;;2.03;;
11127;SDS011;5618;51.028;5.234;2022-08-19T13:27:54;2.53;;;1.95;;
11127;SDS011;5618;51.028;5.234;2022-08-19T13:30:20;2.15;;;1.90;;
11127;SDS011;5618;51.028;5.234;2022-08-19T13:33:05;1.95;;;1.75;;
11127;SDS011;5618;51.028;5.234;2022-08-19T13:35:44;3.80;;;1.92;;
11127;SDS011;5618;51.028;5.234;2022-08-19T13:38:32;1.55;;;1.45;;
11127;SDS011;5618;51.028;5.234;2022-08-19T13:41:03;4.25;;;1.98;;
11127;SDS011;5618;51.028;5.234;2022-08-19T13:43:30;2.92;;;2.30;;
11127;SDS011;5618;51.028;5.234;2022-08-19T13:45:55;2.03;;;1.83;;
11127;SDS011;5618;51.028;5.234;2022-08-19T13:48:22;2.80;;;1.83;;
11127;SDS011;5618;51.028;5.234;2022-08-19T13:50:48;2.15;;;1.80;;
11127;SDS011;5618;51.028;5.234;2022-08-19T13:53:14;1.95;;;1.50;;
11127;SDS011;5618;51.028;5.234;2022-08-19T13:55:41;3.22;;;1.85;;
11127;SDS011;5618;51.028;5.234;2022-08-19T13:58:08;3.47;;;2.20;;
11127;SDS011;5618;51.028;5.234;2022-08-19T14:00:36;5.85;;;1.60;;
11127;SDS011;5618;51.028;5.234;2022-08-19T14:03:07;1.80;;;1.70;;
11127;SDS011;5618;51.028;5.234;2022-08-19T14:05:34;1.88;;;1.77;;
11127;SDS011;5618;51.028;5.234;2022-08-19T14:08:00;2.65;;;1.48;;
11127;SDS011;5618;51.028;5.234;2022-08-19T14:10:26;1.65;;;1.55;;
11127;SDS011;5618;51.028;5.234;2022-08-19T14:12:54;2.15;;;1.60;;
11127;SDS011;5618;51.028;5.234;2022-08-19T14:15:20;2.67;;;1.98;;
11127;SDS011;5618;51.028;5.234;2022-08-19T14:17:48;2.05;;;1.65;;
11127;SDS011;5618;51.028;5.234;2022-08-19T14:20:14;2.53;;;1.40;;
11127;SDS011;5618;51.028;5.234;2022-08-19T14:22:41;1.83;;;1.73;;
11127;SDS011;5618;51.028;5.234;2022-08-19T14:25:11;1.88;;;1.77;;
11127;SDS011;5618;51.028;5.234;2022-08-19T14:27:44;1.77;;;1.65;;
11127;SDS011;5618;51.028;5.234;2022-08-19T14:30:11;2.17;;;1.98;;
11127;SDS011;5618;51.028;5.234;2022-08-19T14:32:39;1.98;;;1.83;;
11127;SDS011;5618;51.028;5.234;2022-08-19T14:35:08;2.20;;;2.00;;
11127;SDS011;5618;51.028;5.234;2022-08-19T14:37:34;2.35;;;1.95;;
11127;SDS011;5618;51.028;5.234;2022-08-19T14:40:00;3.78;;;2.38;;
11127;SDS011;5618;51.028;5.234;2022-08-19T14:42:28;2.15;;;1.95;;
11127;SDS011;5618;51.028;5.234;2022-08-19T14:44:57;2.33;;;1.80;;
11127;SDS011;5618;51.028;5.234;2022-08-19T14:47:24;2.33;;;2.08;;
11127;SDS011;5618;51.028;5.234;2022-08-19T14:49:49;1.75;;;1.60;;
11127;SDS011;5618;51.028;5.234;2022-08-19T14:52:15;1.88;;;1.70;;
11127;SDS011;5618;51.028;5.234;2022-08-19T14:54:41;2.35;;;1.80;;
11127;SDS011;5618;51.028;5.234;2022-08-19T14:57:06;2.70;;;1.55;;
11127;SDS011;5618;51.028;5.234;2022-08-19T14:59:33;1.65;;;1.55;;
11127;SDS011;5618;51.028;5.234;2022-08-19T15:01:59;2.08;;;1.80;;
11127;SDS011;5618;51.028;5.234;2022-08-19T15:04:25;5.53;;;2.03;;